This is the latest recevied weather packets stored in our database for station/object OE3APM-13. If no packets are shown the sender has not sent any weather packets the latest 1 day(s).
| Time | Temp. | Humidity | Pressure | Rain* | Wind** | Luminosity | Snow |
|---|---|---|---|---|---|---|---|
| 1778071896 | 22.22° C | 46% | 1005.3 hPa | 0 mm | - | 267 W/m² | - |
| 1778071294 | 22.78° C | 43% | 1005.6 hPa | 0 mm | - | 276 W/m² | - |
| 1778070994 | 22.78° C | 44% | 1005.6 hPa | 0 mm | - | 346 W/m² | - |
| 1778070705 | 22.78° C | 44% | 1005.7 hPa | 0 mm | - | 352 W/m² | - |
| 1778070392 | 23.33° C | 43% | 1005.7 hPa | 0 mm | - | 260 W/m² | - |
| 1778069792 | 23.33° C | 44% | 1005.7 hPa | 0 mm | - | 434 W/m² | - |
| 1778069492 | 23.33° C | 42% | 1005.7 hPa | 0 mm | - | 884 W/m² | - |
| 1778068891 | 22.22° C | 45% | 1005.9 hPa | 0 mm | - | 891 W/m² | - |
| 1778068594 | 21.67° C | 45% | 1006 hPa | 0 mm | - | 343 W/m² | - |
| 1778065886 | 22.22° C | 46% | 1006.4 hPa | 0 mm | - | 200 W/m² | - |
| 1778065586 | 22.22° C | 48% | 1006.5 hPa | 0 mm | - | 327 W/m² | - |
| 1778064685 | 21.67° C | 45% | 1006.6 hPa | 0 mm | - | 206 W/m² | - |
| 1778063490 | 21.67° C | 45% | 1006.8 hPa | 0 mm | - | 490 W/m² | - |
| 1778062878 | 21.67° C | 46% | 1006.9 hPa | 0 mm | - | 323 W/m² | - |
| 1778062575 | 21.67° C | 43% | 1006.9 hPa | 0 mm | - | 396 W/m² | - |
| 1778061370 | 20.56° C | 48% | 1007.1 hPa | 0 mm | - | 376 W/m² | - |
| 1778060770 | 21.11° C | 48% | 1007.3 hPa | 0 mm | - | 742 W/m² | - |
| 1778060169 | 20.56° C | 49% | 1007.4 hPa | 0 mm | - | 459 W/m² | - |
| 1778059868 | 20.56° C | 50% | 1007.4 hPa | 0 mm | - | 244 W/m² | - |
| 1778059567 | 20.56° C | 51% | 1007.4 hPa | 0 mm | - | 251 W/m² | - |
| 1778058965 | 21.11° C | 48% | 1007.5 hPa | 0 mm | - | 480 W/m² | - |
| 1778058663 | 21.11° C | 47% | 1007.6 hPa | 0 mm | - | 318 W/m² | - |
| 1778058069 | 21.11° C | 48% | 1007.6 hPa | 0 mm | - | 768 W/m² | - |
| 1778057761 | 21.11° C | 48% | 1007.5 hPa | 0 mm | - | 791 W/m² | - |
| 1778057160 | 20.56° C | 50% | 1007.6 hPa | 0 mm | - | 766 W/m² | - |
* Rain latest hour (hover to see other rain measurements)
** Current wind speed in m/s (hover to see current wind gust speed)